sensor_id;sensor_type;location;lat;lon;timestamp;temperature;humidity
55828;DHT22;41758;51.992;5.890;2024-03-23T00:53:08;12.60;69.10
55828;DHT22;41758;51.992;5.890;2024-03-23T00:55:34;12.60;69.10
55828;DHT22;41758;51.992;5.890;2024-03-23T00:58:00;12.60;69.10
55828;DHT22;41758;51.992;5.890;2024-03-23T01:00:25;12.60;69.20
55828;DHT22;41758;51.992;5.890;2024-03-23T01:02:51;12.60;69.30
55828;DHT22;41758;51.992;5.890;2024-03-23T01:05:17;12.70;69.20
55828;DHT22;41758;51.992;5.890;2024-03-23T01:07:42;12.70;69.20
55828;DHT22;41758;51.992;5.890;2024-03-23T01:10:08;12.60;69.20
55828;DHT22;41758;51.992;5.890;2024-03-23T01:12:34;12.60;69.30
55828;DHT22;41758;51.992;5.890;2024-03-23T01:15:00;12.70;69.20
55828;DHT22;41758;51.992;5.890;2024-03-23T01:17:25;12.60;69.20
55828;DHT22;41758;51.992;5.890;2024-03-23T01:19:51;12.60;69.30
55828;DHT22;41758;51.992;5.890;2024-03-23T01:22:17;12.60;69.20
55828;DHT22;41758;51.992;5.890;2024-03-23T01:24:43;12.50;69.10
55828;DHT22;41758;51.992;5.890;2024-03-23T01:27:09;12.50;69.10
55828;DHT22;41758;51.992;5.890;2024-03-23T01:29:35;12.50;69.10
55828;DHT22;41758;51.992;5.890;2024-03-23T01:32:01;12.50;69.20
55828;DHT22;41758;51.992;5.890;2024-03-23T01:34:26;12.50;69.10
55828;DHT22;41758;51.992;5.890;2024-03-23T01:36:53;12.40;69.20
55828;DHT22;41758;51.992;5.890;2024-03-23T01:39:19;12.40;69.30
55828;DHT22;41758;51.992;5.890;2024-03-23T01:41:44;12.50;69.30
55828;DHT22;41758;51.992;5.890;2024-03-23T01:44:10;12.50;69.40
55828;DHT22;41758;51.992;5.890;2024-03-23T01:46:37;12.40;69.40
55828;DHT22;41758;51.992;5.890;2024-03-23T01:49:06;12.50;69.40
55828;DHT22;41758;51.992;5.890;2024-03-23T01:51:33;12.50;69.40
55828;DHT22;41758;51.992;5.890;2024-03-23T01:54:01;12.50;69.30
55828;DHT22;41758;51.992;5.890;2024-03-23T01:56:32;12.50;69.30
55828;DHT22;41758;51.992;5.890;2024-03-23T01:59:04;12.50;69.30
55828;DHT22;41758;51.992;5.890;2024-03-23T02:01:30;12.50;69.30
55828;DHT22;41758;51.992;5.890;2024-03-23T02:03:56;12.40;69.30
55828;DHT22;41758;51.992;5.890;2024-03-23T02:06:22;12.50;69.30
55828;DHT22;41758;51.992;5.890;2024-03-23T02:08:49;12.40;69.30
55828;DHT22;41758;51.992;5.890;2024-03-23T02:11:15;12.40;69.20
55828;DHT22;41758;51.992;5.890;2024-03-23T02:13:41;12.40;69.30
55828;DHT22;41758;51.992;5.890;2024-03-23T02:16:06;12.40;69.20
55828;DHT22;41758;51.992;5.890;2024-03-23T02:18:33;12.40;69.10
55828;DHT22;41758;51.992;5.890;2024-03-23T02:20:59;12.40;69.30
55828;DHT22;41758;51.992;5.890;2024-03-23T02:23:24;12.40;69.30
55828;DHT22;41758;51.992;5.890;2024-03-23T02:25:51;12.40;69.40
55828;DHT22;41758;51.992;5.890;2024-03-23T02:28:17;12.40;69.30
55828;DHT22;41758;51.992;5.890;2024-03-23T02:30:43;12.40;69.30
55828;DHT22;41758;51.992;5.890;2024-03-23T02:33:09;12.40;69.30
55828;DHT22;41758;51.992;5.890;2024-03-23T02:35:34;12.40;69.20
55828;DHT22;41758;51.992;5.890;2024-03-23T02:38:00;12.30;69.10
55828;DHT22;41758;51.992;5.890;2024-03-23T02:40:27;12.30;69.10
55828;DHT22;41758;51.992;5.890;2024-03-23T02:42:53;12.30;68.90
55828;DHT22;41758;51.992;5.890;2024-03-23T02:45:19;12.20;68.90
55828;DHT22;41758;51.992;5.890;2024-03-23T02:47:44;12.10;68.80
55828;DHT22;41758;51.992;5.890;2024-03-23T02:50:10;12.10;68.80
55828;DHT22;41758;51.992;5.890;2024-03-23T02:52:36;12.00;68.80
55828;DHT22;41758;51.992;5.890;2024-03-23T02:55:03;12.00;68.70
55828;DHT22;41758;51.992;5.890;2024-03-23T02:57:29;12.00;68.70
55828;DHT22;41758;51.992;5.890;2024-03-23T02:59:54;11.90;68.70
55828;DHT22;41758;51.992;5.890;2024-03-23T03:02:21;11.80;68.70
55828;DHT22;41758;51.992;5.890;2024-03-23T03:04:47;11.80;68.80
55828;DHT22;41758;51.992;5.890;2024-03-23T03:07:13;11.80;68.90
55828;DHT22;41758;51.992;5.890;2024-03-23T03:09:39;11.80;69.00
55828;DHT22;41758;51.992;5.890;2024-03-23T03:12:07;11.80;69.00
55828;DHT22;41758;51.992;5.890;2024-03-23T03:14:33;11.70;69.00
55828;DHT22;41758;51.992;5.890;2024-03-23T03:16:59;11.70;69.00
55828;DHT22;41758;51.992;5.890;2024-03-23T03:19:25;11.60;68.90
55828;DHT22;41758;51.992;5.890;2024-03-23T03:21:51;11.60;69.00
55828;DHT22;41758;51.992;5.890;2024-03-23T03:24:16;11.60;69.00
55828;DHT22;41758;51.992;5.890;2024-03-23T03:26:43;11.60;69.00
55828;DHT22;41758;51.992;5.890;2024-03-23T03:29:08;11.50;69.10
55828;DHT22;41758;51.992;5.890;2024-03-23T03:31:34;11.50;69.10
55828;DHT22;41758;51.992;5.890;2024-03-23T03:34:00;11.40;69.10
55828;DHT22;41758;51.992;5.890;2024-03-23T03:36:26;11.40;69.10
55828;DHT22;41758;51.992;5.890;2024-03-23T03:38:51;11.40;69.10
55828;DHT22;41758;51.992;5.890;2024-03-23T03:41:18;11.40;69.20
55828;DHT22;41758;51.992;5.890;2024-03-23T03:43:44;11.40;69.20
55828;DHT22;41758;51.992;5.890;2024-03-23T03:46:10;11.30;69.30
55828;DHT22;41758;51.992;5.890;2024-03-23T03:48:36;11.30;69.40
55828;DHT22;41758;51.992;5.890;2024-03-23T03:51:02;11.30;69.40
55828;DHT22;41758;51.992;5.890;2024-03-23T03:53:28;11.30;69.40
55828;DHT22;41758;51.992;5.890;2024-03-23T03:55:54;11.30;69.30
55828;DHT22;41758;51.992;5.890;2024-03-23T03:58:20;11.30;69.30
55828;DHT22;41758;51.992;5.890;2024-03-23T04:00:45;11.20;69.30
55828;DHT22;41758;51.992;5.890;2024-03-23T04:03:11;11.20;69.20
55828;DHT22;41758;51.992;5.890;2024-03-23T04:05:37;11.20;69.20
55828;DHT22;41758;51.992;5.890;2024-03-23T04:08:03;11.20;69.20
55828;DHT22;41758;51.992;5.890;2024-03-23T04:10:30;11.20;69.10
55828;DHT22;41758;51.992;5.890;2024-03-23T04:12:55;11.10;69.10
55828;DHT22;41758;51.992;5.890;2024-03-23T04:15:21;11.10;69.10
55828;DHT22;41758;51.992;5.890;2024-03-23T04:17:47;11.10;69.10
55828;DHT22;41758;51.992;5.890;2024-03-23T04:20:13;11.10;69.10
55828;DHT22;41758;51.992;5.890;2024-03-23T04:22:42;11.00;69.00
55828;DHT22;41758;51.992;5.890;2024-03-23T04:25:08;11.00;69.00
55828;DHT22;41758;51.992;5.890;2024-03-23T04:27:39;11.00;69.00
55828;DHT22;41758;51.992;5.890;2024-03-23T04:30:05;10.90;69.00
55828;DHT22;41758;51.992;5.890;2024-03-23T04:32:39;10.90;69.00
55828;DHT22;41758;51.992;5.890;2024-03-23T04:35:05;10.90;69.00
55828;DHT22;41758;51.992;5.890;2024-03-23T04:37:39;10.80;69.00
55828;DHT22;41758;51.992;5.890;2024-03-23T04:40:08;10.80;69.00
55828;DHT22;41758;51.992;5.890;2024-03-23T04:42:34;10.80;69.00
55828;DHT22;41758;51.992;5.890;2024-03-23T04:45:00;10.80;69.10
55828;DHT22;41758;51.992;5.890;2024-03-23T04:47:26;10.70;69.10
55828;DHT22;41758;51.992;5.890;2024-03-23T04:49:52;10.70;69.00
55828;DHT22;41758;51.992;5.890;2024-03-23T04:52:18;10.60;69.00
55828;DHT22;41758;51.992;5.890;2024-03-23T04:54:44;10.70;69.10
55828;DHT22;41758;51.992;5.890;2024-03-23T04:57:11;10.60;69.00
55828;DHT22;41758;51.992;5.890;2024-03-23T04:59:37;10.60;69.00
55828;DHT22;41758;51.992;5.890;2024-03-23T05:02:02;10.60;68.90
55828;DHT22;41758;51.992;5.890;2024-03-23T05:04:28;10.60;68.90
55828;DHT22;41758;51.992;5.890;2024-03-23T05:06:54;10.60;68.90
55828;DHT22;41758;51.992;5.890;2024-03-23T05:09:20;10.50;68.80
55828;DHT22;41758;51.992;5.890;2024-03-23T05:11:46;10.50;68.80
55828;DHT22;41758;51.992;5.890;2024-03-23T05:14:13;10.40;68.80
55828;DHT22;41758;51.992;5.890;2024-03-23T05:16:39;10.40;68.80
55828;DHT22;41758;51.992;5.890;2024-03-23T05:19:05;10.40;68.80
55828;DHT22;41758;51.992;5.890;2024-03-23T05:21:30;10.40;69.00
55828;DHT22;41758;51.992;5.890;2024-03-23T05:23:56;10.40;69.20
55828;DHT22;41758;51.992;5.890;2024-03-23T05:26:22;10.50;69.20
55828;DHT22;41758;51.992;5.890;2024-03-23T05:28:48;10.50;69.30
55828;DHT22;41758;51.992;5.890;2024-03-23T05:31:29;10.60;69.40
55828;DHT22;41758;51.992;5.890;2024-03-23T05:33:55;10.60;69.50
55828;DHT22;41758;51.992;5.890;2024-03-23T05:36:21;10.60;69.50
55828;DHT22;41758;51.992;5.890;2024-03-23T05:38:47;10.60;69.40
55828;DHT22;41758;51.992;5.890;2024-03-23T05:41:13;10.60;69.30
55828;DHT22;41758;51.992;5.890;2024-03-23T05:43:39;10.60;69.10
55828;DHT22;41758;51.992;5.890;2024-03-23T05:46:05;10.60;69.00
55828;DHT22;41758;51.992;5.890;2024-03-23T05:48:31;10.50;68.90
55828;DHT22;41758;51.992;5.890;2024-03-23T05:50:57;10.50;68.80
55828;DHT22;41758;51.992;5.890;2024-03-23T05:53:23;10.40;68.80
55828;DHT22;41758;51.992;5.890;2024-03-23T05:55:50;10.40;68.80
55828;DHT22;41758;51.992;5.890;2024-03-23T05:58:17;10.40;68.80
55828;DHT22;41758;51.992;5.890;2024-03-23T06:00:44;10.40;68.80
55828;DHT22;41758;51.992;5.890;2024-03-23T06:03:10;10.30;68.70
55828;DHT22;41758;51.992;5.890;2024-03-23T06:05:39;10.30;68.80
55828;DHT22;41758;51.992;5.890;2024-03-23T06:08:07;10.30;68.90
55828;DHT22;41758;51.992;5.890;2024-03-23T06:10:37;10.20;68.90
55828;DHT22;41758;51.992;5.890;2024-03-23T06:13:03;10.20;69.00
55828;DHT22;41758;51.992;5.890;2024-03-23T06:15:29;10.20;69.10
55828;DHT22;41758;51.992;5.890;2024-03-23T06:17:56;10.20;69.20
55828;DHT22;41758;51.992;5.890;2024-03-23T06:20:22;10.20;69.30
55828;DHT22;41758;51.992;5.890;2024-03-23T06:22:48;10.20;69.30
55828;DHT22;41758;51.992;5.890;2024-03-23T06:25:14;10.20;69.50
55828;DHT22;41758;51.992;5.890;2024-03-23T06:27:39;10.30;69.50
55828;DHT22;41758;51.992;5.890;2024-03-23T06:30:06;10.30;69.50
55828;DHT22;41758;51.992;5.890;2024-03-23T06:32:32;10.30;69.50
55828;DHT22;41758;51.992;5.890;2024-03-23T06:34:58;10.30;69.60
55828;DHT22;41758;51.992;5.890;2024-03-23T06:37:23;10.40;69.60
55828;DHT22;41758;51.992;5.890;2024-03-23T06:39:49;10.40;69.70
55828;DHT22;41758;51.992;5.890;2024-03-23T06:42:15;10.40;69.60
55828;DHT22;41758;51.992;5.890;2024-03-23T06:44:40;10.40;69.60
55828;DHT22;41758;51.992;5.890;2024-03-23T06:47:06;10.50;69.70
55828;DHT22;41758;51.992;5.890;2024-03-23T06:49:32;10.50;70.40
55828;DHT22;41758;51.992;5.890;2024-03-23T06:51:57;10.80;70.90
55828;DHT22;41758;51.992;5.890;2024-03-23T06:54:24;10.90;70.90
55828;DHT22;41758;51.992;5.890;2024-03-23T06:56:50;11.00;70.40
55828;DHT22;41758;51.992;5.890;2024-03-23T06:59:16;11.00;69.90
55828;DHT22;41758;51.992;5.890;2024-03-23T07:01:42;11.00;69.80
55828;DHT22;41758;51.992;5.890;2024-03-23T07:04:07;11.00;69.80
55828;DHT22;41758;51.992;5.890;2024-03-23T07:06:33;11.10;70.10
55828;DHT22;41758;51.992;5.890;2024-03-23T07:08:59;11.10;69.80
55828;DHT22;41758;51.992;5.890;2024-03-23T07:11:25;11.10;69.70
55828;DHT22;41758;51.992;5.890;2024-03-23T07:13:52;11.20;69.70
55828;DHT22;41758;51.992;5.890;2024-03-23T07:16:20;11.10;69.70
55828;DHT22;41758;51.992;5.890;2024-03-23T07:18:45;11.20;69.70
55828;DHT22;41758;51.992;5.890;2024-03-23T07:21:11;11.20;69.80
55828;DHT22;41758;51.992;5.890;2024-03-23T07:23:37;11.30;69.80
55828;DHT22;41758;51.992;5.890;2024-03-23T07:26:04;11.30;69.70
55828;DHT22;41758;51.992;5.890;2024-03-23T07:28:33;11.30;69.80
55828;DHT22;41758;51.992;5.890;2024-03-23T07:31:12;11.30;69.60
55828;DHT22;41758;51.992;5.890;2024-03-23T07:33:44;11.30;69.60
55828;DHT22;41758;51.992;5.890;2024-03-23T07:36:10;11.30;69.50
55828;DHT22;41758;51.992;5.890;2024-03-23T07:38:36;11.30;69.70
55828;DHT22;41758;51.992;5.890;2024-03-23T07:41:10;11.30;69.90
55828;DHT22;41758;51.992;5.890;2024-03-23T07:43:37;11.40;69.80
55828;DHT22;41758;51.992;5.890;2024-03-23T07:46:04;11.30;69.80
55828;DHT22;41758;51.992;5.890;2024-03-23T07:48:30;11.40;69.90
55828;DHT22;41758;51.992;5.890;2024-03-23T07:53:26;11.40;70.10
55828;DHT22;41758;51.992;5.890;2024-03-23T07:56:17;11.40;70.20
55828;DHT22;41758;51.992;5.890;2024-03-23T07:58:44;11.60;70.40
55828;DHT22;41758;51.992;5.890;2024-03-23T08:01:15;11.60;70.50
55828;DHT22;41758;51.992;5.890;2024-03-23T08:03:42;11.80;70.60
55828;DHT22;41758;51.992;5.890;2024-03-23T08:08:34;11.90;70.70
55828;DHT22;41758;51.992;5.890;2024-03-23T08:11:00;12.00;70.70
55828;DHT22;41758;51.992;5.890;2024-03-23T08:13:26;12.20;70.80
55828;DHT22;41758;51.992;5.890;2024-03-23T08:15:56;12.30;70.80
55828;DHT22;41758;51.992;5.890;2024-03-23T08:18:21;12.40;70.60
55828;DHT22;41758;51.992;5.890;2024-03-23T08:20:54;12.50;70.00
55828;DHT22;41758;51.992;5.890;2024-03-23T08:23:20;12.60;70.10
55828;DHT22;41758;51.992;5.890;2024-03-23T08:25:46;12.60;70.00
55828;DHT22;41758;51.992;5.890;2024-03-23T08:28:11;12.70;70.10
55828;DHT22;41758;51.992;5.890;2024-03-23T08:30:37;12.80;70.20
55828;DHT22;41758;51.992;5.890;2024-03-23T08:33:03;12.90;70.40
55828;DHT22;41758;51.992;5.890;2024-03-23T08:35:29;12.90;70.60
55828;DHT22;41758;51.992;5.890;2024-03-23T08:37:54;13.10;70.10
55828;DHT22;41758;51.992;5.890;2024-03-23T08:40:20;13.10;69.40
55828;DHT22;41758;51.992;5.890;2024-03-23T08:42:46;13.10;69.30
55828;DHT22;41758;51.992;5.890;2024-03-23T08:45:11;13.10;69.00
55828;DHT22;41758;51.992;5.890;2024-03-23T08:47:37;13.10;69.00
55828;DHT22;41758;51.992;5.890;2024-03-23T08:50:03;13.10;69.00
55828;DHT22;41758;51.992;5.890;2024-03-23T08:52:29;13.20;68.80
55828;DHT22;41758;51.992;5.890;2024-03-23T08:54:55;13.20;69.20
55828;DHT22;41758;51.992;5.890;2024-03-23T08:57:22;13.20;69.00
55828;DHT22;41758;51.992;5.890;2024-03-23T08:59:48;13.20;68.80
55828;DHT22;41758;51.992;5.890;2024-03-23T09:02:14;13.10;68.80
55828;DHT22;41758;51.992;5.890;2024-03-23T09:04:40;13.00;68.20
55828;DHT22;41758;51.992;5.890;2024-03-23T09:07:05;12.90;68.30
55828;DHT22;41758;51.992;5.890;2024-03-23T09:09:31;12.80;68.20
55828;DHT22;41758;51.992;5.890;2024-03-23T09:11:57;12.60;68.00
55828;DHT22;41758;51.992;5.890;2024-03-23T09:14:22;12.40;68.00
55828;DHT22;41758;51.992;5.890;2024-03-23T09:16:50;12.30;67.80
55828;DHT22;41758;51.992;5.890;2024-03-23T09:19:17;12.20;68.00
55828;DHT22;41758;51.992;5.890;2024-03-23T09:21:43;12.00;68.40
55828;DHT22;41758;51.992;5.890;2024-03-23T09:24:09;12.00;68.80
55828;DHT22;41758;51.992;5.890;2024-03-23T09:26:34;12.00;68.80
55828;DHT22;41758;51.992;5.890;2024-03-23T09:29:00;11.90;68.50
55828;DHT22;41758;51.992;5.890;2024-03-23T09:31:26;11.80;68.40
55828;DHT22;41758;51.992;5.890;2024-03-23T09:33:51;11.80;68.50
55828;DHT22;41758;51.992;5.890;2024-03-23T09:36:17;11.80;68.90
55828;DHT22;41758;51.992;5.890;2024-03-23T09:38:42;11.80;69.00
55828;DHT22;41758;51.992;5.890;2024-03-23T09:41:09;11.80;69.40
55828;DHT22;41758;51.992;5.890;2024-03-23T09:43:35;11.90;69.50
55828;DHT22;41758;51.992;5.890;2024-03-23T09:46:02;11.90;69.90
55828;DHT22;41758;51.992;5.890;2024-03-23T09:48:28;12.10;70.00
55828;DHT22;41758;51.992;5.890;2024-03-23T09:50:54;12.20;70.20
55828;DHT22;41758;51.992;5.890;2024-03-23T09:53:20;12.30;70.20
55828;DHT22;41758;51.992;5.890;2024-03-23T09:55:47;12.40;70.40
55828;DHT22;41758;51.992;5.890;2024-03-23T09:58:17;12.50;70.70
55828;DHT22;41758;51.992;5.890;2024-03-23T10:00:44;12.80;71.30
55828;DHT22;41758;51.992;5.890;2024-03-23T10:03:10;13.10;71.90
55828;DHT22;41758;51.992;5.890;2024-03-23T10:05:37;13.50;72.00
55828;DHT22;41758;51.992;5.890;2024-03-23T10:08:18;13.80;71.70
55828;DHT22;41758;51.992;5.890;2024-03-23T10:10:45;14.00;70.30
55828;DHT22;41758;51.992;5.890;2024-03-23T10:13:24;13.90;69.60
55828;DHT22;41758;51.992;5.890;2024-03-23T10:15:58;13.80;68.80
55828;DHT22;41758;51.992;5.890;2024-03-23T10:18:24;13.70;68.30
55828;DHT22;41758;51.992;5.890;2024-03-23T10:23:39;13.30;68.10
55828;DHT22;41758;51.992;5.890;2024-03-23T10:26:16;13.30;68.50
55828;DHT22;41758;51.992;5.890;2024-03-23T10:31:25;13.30;69.10
55828;DHT22;41758;51.992;5.890;2024-03-23T10:33:51;13.30;69.00
55828;DHT22;41758;51.992;5.890;2024-03-23T10:36:20;13.10;66.60
55828;DHT22;41758;51.992;5.890;2024-03-23T10:38:46;12.50;62.00
55828;DHT22;41758;51.992;5.890;2024-03-23T10:41:12;12.00;64.00
55828;DHT22;41758;51.992;5.890;2024-03-23T10:43:39;11.80;65.60
55828;DHT22;41758;51.992;5.890;2024-03-23T10:46:05;11.60;66.20
55828;DHT22;41758;51.992;5.890;2024-03-23T10:48:33;11.40;67.50
55828;DHT22;41758;51.992;5.890;2024-03-23T10:50:59;11.50;69.10
55828;DHT22;41758;51.992;5.890;2024-03-23T10:53:28;11.60;70.40
55828;DHT22;41758;51.992;5.890;2024-03-23T10:55:55;11.80;70.80
55828;DHT22;41758;51.992;5.890;2024-03-23T11:01:02;12.20;71.50
55828;DHT22;41758;51.992;5.890;2024-03-23T11:03:35;12.40;71.30
55828;DHT22;41758;51.992;5.890;2024-03-23T11:06:03;12.50;71.10
55828;DHT22;41758;51.992;5.890;2024-03-23T11:08:34;12.70;70.80
55828;DHT22;41758;51.992;5.890;2024-03-23T11:13:42;12.80;70.40
55828;DHT22;41758;51.992;5.890;2024-03-23T11:18:40;13.10;70.10
55828;DHT22;41758;51.992;5.890;2024-03-23T11:21:08;13.30;70.40
55828;DHT22;41758;51.992;5.890;2024-03-23T11:23:33;13.60;71.40
55828;DHT22;41758;51.992;5.890;2024-03-23T11:25:59;14.10;71.00
55828;DHT22;41758;51.992;5.890;2024-03-23T11:28:25;14.60;71.70
55828;DHT22;41758;51.992;5.890;2024-03-23T11:30:50;15.00;70.70
55828;DHT22;41758;51.992;5.890;2024-03-23T11:33:16;15.00;67.90
55828;DHT22;41758;51.992;5.890;2024-03-23T11:35:42;14.80;67.10
55828;DHT22;41758;51.992;5.890;2024-03-23T11:40:37;14.40;68.00
55828;DHT22;41758;51.992;5.890;2024-03-23T11:43:14;14.30;67.20
55828;DHT22;41758;51.992;5.890;2024-03-23T11:46:00;14.00;66.80
55828;DHT22;41758;51.992;5.890;2024-03-23T11:48:28;13.80;66.90
55828;DHT22;41758;51.992;5.890;2024-03-23T11:50:56;13.90;69.00
55828;DHT22;41758;51.992;5.890;2024-03-23T11:53:24;14.20;70.20
55828;DHT22;41758;51.992;5.890;2024-03-23T11:55:57;14.60;71.50
55828;DHT22;41758;51.992;5.890;2024-03-23T11:58:24;15.10;71.20
55828;DHT22;41758;51.992;5.890;2024-03-23T12:00:59;15.40;71.10
55828;DHT22;41758;51.992;5.890;2024-03-23T12:03:27;15.80;70.50
55828;DHT22;41758;51.992;5.890;2024-03-23T12:05:55;16.00;69.70
55828;DHT22;41758;51.992;5.890;2024-03-23T12:10:50;15.60;64.10
55828;DHT22;41758;51.992;5.890;2024-03-23T12:13:20;15.30;63.70
55828;DHT22;41758;51.992;5.890;2024-03-23T12:15:50;14.90;63.50
55828;DHT22;41758;51.992;5.890;2024-03-23T12:18:16;14.60;64.60
55828;DHT22;41758;51.992;5.890;2024-03-23T12:20:42;14.30;64.70
55828;DHT22;41758;51.992;5.890;2024-03-23T12:23:10;14.00;64.00
55828;DHT22;41758;51.992;5.890;2024-03-23T12:25:39;13.60;63.70
55828;DHT22;41758;51.992;5.890;2024-03-23T12:28:05;13.30;64.80
55828;DHT22;41758;51.992;5.890;2024-03-23T12:30:33;13.30;66.20
55828;DHT22;41758;51.992;5.890;2024-03-23T12:32:59;13.30;67.10
55828;DHT22;41758;51.992;5.890;2024-03-23T12:35:25;13.30;67.80
55828;DHT22;41758;51.992;5.890;2024-03-23T12:37:50;13.60;68.80
55828;DHT22;41758;51.992;5.890;2024-03-23T12:40:16;14.10;69.90
55828;DHT22;41758;51.992;5.890;2024-03-23T12:42:42;14.60;69.30
55828;DHT22;41758;51.992;5.890;2024-03-23T12:45:08;14.70;68.10
55828;DHT22;41758;51.992;5.890;2024-03-23T12:47:33;14.90;68.30
55828;DHT22;41758;51.992;5.890;2024-03-23T12:49:59;15.10;68.10
55828;DHT22;41758;51.992;5.890;2024-03-23T12:52:25;15.30;66.40
55828;DHT22;41758;51.992;5.890;2024-03-23T12:54:57;15.30;66.00
55828;DHT22;41758;51.992;5.890;2024-03-23T12:57:24;15.10;64.90
55828;DHT22;41758;51.992;5.890;2024-03-23T12:59:51;14.90;65.20
55828;DHT22;41758;51.992;5.890;2024-03-23T13:02:19;14.70;65.20
55828;DHT22;41758;51.992;5.890;2024-03-23T13:04:48;14.50;65.50
55828;DHT22;41758;51.992;5.890;2024-03-23T13:07:14;14.60;67.10
55828;DHT22;41758;51.992;5.890;2024-03-23T13:09:40;14.70;68.30
55828;DHT22;41758;51.992;5.890;2024-03-23T13:12:06;15.00;68.80
55828;DHT22;41758;51.992;5.890;2024-03-23T13:14:32;15.30;69.20
55828;DHT22;41758;51.992;5.890;2024-03-23T13:16:57;15.60;68.20
55828;DHT22;41758;51.992;5.890;2024-03-23T13:19:23;15.80;66.20
55828;DHT22;41758;51.992;5.890;2024-03-23T13:21:54;15.70;63.00
55828;DHT22;41758;51.992;5.890;2024-03-23T13:24:24;15.50;62.70
55828;DHT22;41758;51.992;5.890;2024-03-23T13:26:53;15.10;63.20
55828;DHT22;41758;51.992;5.890;2024-03-23T13:29:20;14.80;63.70
55828;DHT22;41758;51.992;5.890;2024-03-23T13:31:49;14.50;64.50
55828;DHT22;41758;51.992;5.890;2024-03-23T13:34:18;14.30;64.00
55828;DHT22;41758;51.992;5.890;2024-03-23T13:36:45;14.00;63.70
55828;DHT22;41758;51.992;5.890;2024-03-23T13:39:12;13.70;64.50
55828;DHT22;41758;51.992;5.890;2024-03-23T13:41:39;13.50;64.50
55828;DHT22;41758;51.992;5.890;2024-03-23T13:44:12;13.40;65.80
55828;DHT22;41758;51.992;5.890;2024-03-23T13:46:39;13.40;66.40
55828;DHT22;41758;51.992;5.890;2024-03-23T13:49:05;13.60;67.20
55828;DHT22;41758;51.992;5.890;2024-03-23T13:51:32;13.60;67.00
55828;DHT22;41758;51.992;5.890;2024-03-23T13:53:57;13.70;66.40
55828;DHT22;41758;51.992;5.890;2024-03-23T13:56:29;13.70;66.30
55828;DHT22;41758;51.992;5.890;2024-03-23T13:58:56;13.70;66.50
55828;DHT22;41758;51.992;5.890;2024-03-23T14:01:22;13.70;66.50
55828;DHT22;41758;51.992;5.890;2024-03-23T14:03:48;13.70;66.60
55828;DHT22;41758;51.992;5.890;2024-03-23T14:06:14;13.60;65.60
55828;DHT22;41758;51.992;5.890;2024-03-23T14:08:40;13.40;65.00
55828;DHT22;41758;51.992;5.890;2024-03-23T14:11:06;13.30;65.50
55828;DHT22;41758;51.992;5.890;2024-03-23T14:13:32;13.20;65.40
55828;DHT22;41758;51.992;5.890;2024-03-23T14:15:58;13.10;65.90
55828;DHT22;41758;51.992;5.890;2024-03-23T14:18:24;13.10;66.20
55828;DHT22;41758;51.992;5.890;2024-03-23T14:20:52;13.20;66.90
55828;DHT22;41758;51.992;5.890;2024-03-23T14:23:19;13.20;66.80
55828;DHT22;41758;51.992;5.890;2024-03-23T14:25:45;13.20;67.00
55828;DHT22;41758;51.992;5.890;2024-03-23T14:28:11;13.20;66.70
55828;DHT22;41758;51.992;5.890;2024-03-23T14:30:42;13.10;66.10
55828;DHT22;41758;51.992;5.890;2024-03-23T14:33:09;13.10;66.80
55828;DHT22;41758;51.992;5.890;2024-03-23T14:35:35;13.10;66.90
55828;DHT22;41758;51.992;5.890;2024-03-23T14:38:01;13.10;66.70
55828;DHT22;41758;51.992;5.890;2024-03-23T14:40:27;13.00;66.40
55828;DHT22;41758;51.992;5.890;2024-03-23T14:42:54;12.80;65.60
55828;DHT22;41758;51.992;5.890;2024-03-23T14:45:21;12.60;65.70
55828;DHT22;41758;51.992;5.890;2024-03-23T14:47:47;12.40;66.20
55828;DHT22;41758;51.992;5.890;2024-03-23T14:50:13;12.40;66.80
55828;DHT22;41758;51.992;5.890;2024-03-23T14:52:49;12.30;66.90
55828;DHT22;41758;51.992;5.890;2024-03-23T14:55:16;12.30;67.10
55828;DHT22;41758;51.992;5.890;2024-03-23T14:57:42;12.20;67.30
55828;DHT22;41758;51.992;5.890;2024-03-23T15:00:09;12.20;67.50
55828;DHT22;41758;51.992;5.890;2024-03-23T15:02:38;12.20;67.80
55828;DHT22;41758;51.992;5.890;2024-03-23T15:05:07;12.20;68.00
55828;DHT22;41758;51.992;5.890;2024-03-23T15:07:36;12.30;68.30
55828;DHT22;41758;51.992;5.890;2024-03-23T15:10:06;12.30;68.10
55828;DHT22;41758;51.992;5.890;2024-03-23T15:12:31;12.30;68.20
55828;DHT22;41758;51.992;5.890;2024-03-23T15:14:59;12.40;68.50
55828;DHT22;41758;51.992;5.890;2024-03-23T15:17:26;12.40;68.60
55828;DHT22;41758;51.992;5.890;2024-03-23T15:19:51;12.50;69.30
55828;DHT22;41758;51.992;5.890;2024-03-23T15:22:19;12.70;69.20
55828;DHT22;41758;51.992;5.890;2024-03-23T15:24:45;12.80;68.70
55828;DHT22;41758;51.992;5.890;2024-03-23T15:27:11;13.00;69.10
55828;DHT22;41758;51.992;5.890;2024-03-23T15:29:37;13.10;69.00
55828;DHT22;41758;51.992;5.890;2024-03-23T15:32:04;13.10;68.70
55828;DHT22;41758;51.992;5.890;2024-03-23T15:34:29;13.30;69.00
55828;DHT22;41758;51.992;5.890;2024-03-23T15:36:55;13.50;69.70
55828;DHT22;41758;51.992;5.890;2024-03-23T15:39:21;13.70;69.40
55828;DHT22;41758;51.992;5.890;2024-03-23T15:41:48;14.00;69.70
55828;DHT22;41758;51.992;5.890;2024-03-23T15:44:14;14.30;69.20
55828;DHT22;41758;51.992;5.890;2024-03-23T15:46:40;14.40;68.20
55828;DHT22;41758;51.992;5.890;2024-03-23T15:49:06;14.50;67.70
55828;DHT22;41758;51.992;5.890;2024-03-23T15:51:32;14.70;66.70
55828;DHT22;41758;51.992;5.890;2024-03-23T15:54:02;14.70;66.60
55828;DHT22;41758;51.992;5.890;2024-03-23T15:56:31;14.80;65.80
55828;DHT22;41758;51.992;5.890;2024-03-23T15:58:57;14.80;66.20
55828;DHT22;41758;51.992;5.890;2024-03-23T16:01:34;14.80;66.30
55828;DHT22;41758;51.992;5.890;2024-03-23T16:04:01;14.90;65.90
55828;DHT22;41758;51.992;5.890;2024-03-23T16:06:27;15.00;66.40
55828;DHT22;41758;51.992;5.890;2024-03-23T16:08:53;15.00;66.50
55828;DHT22;41758;51.992;5.890;2024-03-23T16:11:18;15.10;65.90
55828;DHT22;41758;51.992;5.890;2024-03-23T16:13:44;15.10;65.80
55828;DHT22;41758;51.992;5.890;2024-03-23T16:16:12;15.10;64.90
55828;DHT22;41758;51.992;5.890;2024-03-23T16:18:38;15.00;65.20
55828;DHT22;41758;51.992;5.890;2024-03-23T16:21:05;14.90;65.30
55828;DHT22;41758;51.992;5.890;2024-03-23T16:23:35;14.80;63.80
55828;DHT22;41758;51.992;5.890;2024-03-23T16:26:04;14.60;64.10
55828;DHT22;41758;51.992;5.890;2024-03-23T16:28:32;14.40;63.90
55828;DHT22;41758;51.992;5.890;2024-03-23T16:33:23;14.10;63.40
55828;DHT22;41758;51.992;5.890;2024-03-23T16:38:25;13.70;64.60
55828;DHT22;41758;51.992;5.890;2024-03-23T16:40:58;13.60;65.00
55828;DHT22;41758;51.992;5.890;2024-03-23T16:43:25;13.60;65.10
55828;DHT22;41758;51.992;5.890;2024-03-23T16:46:13;13.50;65.20
55828;DHT22;41758;51.992;5.890;2024-03-23T16:48:38;13.40;64.20